Terminal Aerodrome Forecast
Issued by NWS Burlington, VT

Home | Current Version | Previous Version | Text Only | Print | Product List | Glossary On
Versions: 1 2 3 4 5 6 7 8 9 10 11 12 13 14 15 16
650
FTUS41 KBTV 300529
TAFBTV
TAF
KBTV 300529Z 3006/3106 18012G18KT P6SM OVC020
     FM301300 18014G22KT P6SM VCSH BKN045
     FM301800 18015G23KT 6SM -SHRA BR OVC050
     FM302200 17013G19KT 5SM -SHRA BR OVC035
     FM310100 17011KT 6SM BR VCSH BKN040
     FM310500 18010KT P6SM BKN060=

USA.gov is the U.S. government's official web portal to all federal, state and local government web resources and services.